createdAt,value
2022-09-06T00:01:11.667Z,73.61
2022-09-06T00:03:41.236Z,74.82
2022-09-06T00:06:10.703Z,73.02
2022-09-06T00:08:38.741Z,73.31
2022-09-06T00:11:06.943Z,73.80
2022-09-06T00:13:35.179Z,73.02
2022-09-06T00:16:08.620Z,73.14
2022-09-06T00:18:37.070Z,73.27
2022-09-06T00:21:13.957Z,73.33
2022-09-06T00:23:41.771Z,73.07
2022-09-06T00:26:09.352Z,72.57
2022-09-06T00:28:36.980Z,73.29
2022-09-06T00:31:10.215Z,74.00
2022-09-06T00:33:38.153Z,73.26
2022-09-06T00:36:07.740Z,73.78
2022-09-06T00:38:35.758Z,72.94
2022-09-06T00:41:03.810Z,73.06
2022-09-06T00:43:31.463Z,73.25
2022-09-06T00:45:59.581Z,74.03
2022-09-06T00:48:27.430Z,72.73
2022-09-06T00:50:59.699Z,72.88
2022-09-06T00:53:28.966Z,72.71
2022-09-06T00:55:56.978Z,73.63
2022-09-06T00:58:25.828Z,73.23
2022-09-06T01:00:53.680Z,73.01
2022-09-06T01:03:22.711Z,73.68
2022-09-06T01:06:01.436Z,73.49
2022-09-06T01:08:40.854Z,73.33
2022-09-06T01:11:27.985Z,73.12
2022-09-06T01:14:05.058Z,73.65
2022-09-06T01:16:40.220Z,73.42
2022-09-06T01:19:33.981Z,74.37
2022-09-06T01:22:15.269Z,73.65
2022-09-06T01:25:05.175Z,73.51
2022-09-06T01:28:18.695Z,74.17
2022-09-06T01:30:52.091Z,74.20
2022-09-06T01:33:25.653Z,73.60
2022-09-06T01:35:59.381Z,73.78
2022-09-06T01:38:27.115Z,74.00
2022-09-06T01:40:54.778Z,73.44
2022-09-06T01:43:27.650Z,73.58
2022-09-06T01:46:04.246Z,73.68
2022-09-06T01:48:45.062Z,73.81
2022-09-06T01:51:22.333Z,73.94
2022-09-06T01:54:10.867Z,73.53
2022-09-06T01:56:44.368Z,73.92
2022-09-06T01:59:34.839Z,74.50
2022-09-06T02:02:08.486Z,74.08
2022-09-06T02:04:43.735Z,73.97
2022-09-06T02:07:17.415Z,73.65
2022-09-06T02:09:49.670Z,73.74
2022-09-06T02:12:19.727Z,73.89
2022-09-06T02:14:53.899Z,73.97
2022-09-06T02:17:26.914Z,74.19
2022-09-06T02:19:57.898Z,74.64
2022-09-06T02:22:32.958Z,74.35
2022-09-06T02:25:02.161Z,74.56
2022-09-06T02:27:31.112Z,74.13
2022-09-06T02:30:02.955Z,74.33
2022-09-06T02:32:33.836Z,74.95
2022-09-06T02:35:09.778Z,74.50
2022-09-06T02:37:37.407Z,74.98
2022-09-06T02:40:06.256Z,75.39
2022-09-06T02:42:34.253Z,74.34
2022-09-06T02:45:03.400Z,74.19
2022-09-06T02:47:31.169Z,74.16
2022-09-06T02:49:58.765Z,73.55
2022-09-06T02:52:26.347Z,73.93
2022-09-06T02:54:54.033Z,74.63
2022-09-06T02:57:21.609Z,74.22
2022-09-06T02:59:49.204Z,74.61
2022-09-06T03:02:18.304Z,74.57
2022-09-06T03:04:45.993Z,74.20
2022-09-06T03:07:13.593Z,74.89
2022-09-06T03:09:41.707Z,75.10
2022-09-06T03:12:09.729Z,74.41
2022-09-06T03:14:37.342Z,74.28
2022-09-06T03:17:05.407Z,74.68
2022-09-06T03:19:34.376Z,74.76
2022-09-06T03:22:01.956Z,75.29
2022-09-06T03:24:29.546Z,74.74
2022-09-06T03:26:57.100Z,74.97
2022-09-06T03:29:24.719Z,74.63
2022-09-06T03:31:52.430Z,74.41
2022-09-06T03:34:20.121Z,74.83
2022-09-06T03:36:49.053Z,74.77
2022-09-06T03:39:16.683Z,74.65
2022-09-06T03:41:44.253Z,75.51
2022-09-06T03:44:11.893Z,74.72
2022-09-06T03:46:40.123Z,75.52
2022-09-06T03:49:10.176Z,74.98
2022-09-06T03:51:37.769Z,75.44
2022-09-06T03:54:07.351Z,75.14
2022-09-06T03:56:35.067Z,75.35
2022-09-06T03:59:02.702Z,75.52
2022-09-06T04:01:30.333Z,75.73
2022-09-06T04:03:57.929Z,75.07
2022-09-06T04:06:25.499Z,75.60
2022-09-06T04:08:53.141Z,75.23
2022-09-06T04:11:22.132Z,75.48
2022-09-06T04:13:49.785Z,75.26
2022-09-06T04:16:18.644Z,75.37
2022-09-06T04:18:46.341Z,75.39
2022-09-06T04:21:13.927Z,75.14
2022-09-06T04:23:41.678Z,76.00
2022-09-06T04:26:09.310Z,75.89
2022-09-06T04:28:38.282Z,76.25
2022-09-06T04:31:06.309Z,76.25
2022-09-06T04:33:35.846Z,75.58
2022-09-06T04:36:05.310Z,76.19
2022-09-06T04:38:37.052Z,75.83
2022-09-06T04:41:05.071Z,75.77
2022-09-06T04:43:33.293Z,76.61
2022-09-06T04:46:06.209Z,76.20
2022-09-06T04:48:33.910Z,75.87
2022-09-06T04:51:01.535Z,75.85
2022-09-06T04:53:29.247Z,75.68
2022-09-06T04:55:58.108Z,75.52
2022-09-06T04:58:26.306Z,76.17
2022-09-06T05:00:54.167Z,76.35
2022-09-06T05:03:23.146Z,76.08
2022-09-06T05:05:50.712Z,76.38
2022-09-06T05:08:18.827Z,76.76
2022-09-06T05:10:46.411Z,76.12
2022-09-06T05:13:14.051Z,76.35
2022-09-06T05:15:41.720Z,76.30
2022-09-06T05:18:12.869Z,76.66
2022-09-06T05:20:44.499Z,76.27
2022-09-06T05:23:12.110Z,76.09
2022-09-06T05:25:39.686Z,76.97
2022-09-06T05:28:07.263Z,76.27
2022-09-06T05:30:34.860Z,76.49
2022-09-06T05:33:02.503Z,76.92
2022-09-06T05:35:30.150Z,76.91
2022-09-06T05:37:59.217Z,76.60
2022-09-06T05:40:26.785Z,76.72
2022-09-06T05:42:54.423Z,76.79
2022-09-06T05:45:22.075Z,76.66
2022-09-06T05:47:49.748Z,76.69
2022-09-06T05:50:17.559Z,76.53
2022-09-06T05:52:45.160Z,76.90
2022-09-06T05:55:14.242Z,77.58
2022-09-06T05:57:41.854Z,77.55
2022-09-06T06:00:12.274Z,77.38
2022-09-06T06:02:40.630Z,76.26
2022-09-06T06:05:09.178Z,76.82
2022-09-06T06:07:36.743Z,77.17
2022-09-06T06:10:04.820Z,76.81
2022-09-06T06:12:33.910Z,77.77
2022-09-06T06:15:01.509Z,78.29
2022-09-06T06:17:29.087Z,78.40
2022-09-06T06:19:56.666Z,79.43
2022-09-06T06:22:24.244Z,80.98
2022-09-06T06:24:51.835Z,80.06
2022-09-06T06:27:19.444Z,80.58
2022-09-06T06:29:48.456Z,79.99
2022-09-06T06:32:16.169Z,79.73
2022-09-06T06:34:44.051Z,79.20
2022-09-06T06:37:11.629Z,79.14
2022-09-06T06:39:39.294Z,79.88
2022-09-06T06:42:07.163Z,81.19
2022-09-06T06:44:34.766Z,80.08
2022-09-06T06:47:03.724Z,80.06
2022-09-06T06:49:31.402Z,80.33
2022-09-06T06:51:59.174Z,80.63
2022-09-06T06:54:26.780Z,81.98
2022-09-06T06:56:54.361Z,81.73
2022-09-06T06:59:21.990Z,82.27
2022-09-06T07:01:50.732Z,82.04
2022-09-06T07:04:19.734Z,82.97
2022-09-06T07:12:24.862Z,82.99
2022-09-06T07:14:52.549Z,84.37
2022-09-06T07:17:20.326Z,83.38
2022-09-06T07:22:36.949Z,82.70
2022-09-06T07:25:05.189Z,83.13
2022-09-06T07:27:49.337Z,82.49
2022-09-06T07:30:19.555Z,83.38
2022-09-06T07:32:47.183Z,83.37
2022-09-06T07:35:16.339Z,83.79
2022-09-06T07:37:44.001Z,83.45
2022-09-06T07:40:12.392Z,83.66
2022-09-06T07:42:40.097Z,83.30
2022-09-06T07:45:08.612Z,82.86
2022-09-06T07:53:16.628Z,82.29
2022-09-06T07:55:47.114Z,80.78
2022-09-06T07:58:15.361Z,81.45
2022-09-06T08:00:43.015Z,81.30
2022-09-06T08:03:10.715Z,80.11
2022-09-06T08:11:15.103Z,80.09
2022-09-06T08:13:43.360Z,80.59
2022-09-06T08:16:12.510Z,81.01
2022-09-06T08:18:40.197Z,79.99
2022-09-06T08:21:12.636Z,80.19
2022-09-06T08:23:42.714Z,80.31
2022-09-06T08:26:10.312Z,79.82
2022-09-06T08:28:37.960Z,80.43
2022-09-06T08:31:10.812Z,80.90
2022-09-06T08:33:39.612Z,80.89
2022-09-06T08:36:08.168Z,80.57
2022-09-06T08:38:37.858Z,80.43
2022-09-06T08:41:10.495Z,80.26
2022-09-06T08:43:40.069Z,80.66
2022-09-06T08:46:10.150Z,81.48
2022-09-06T08:48:39.944Z,79.86
2022-09-06T08:51:28.752Z,80.01
2022-09-06T08:54:07.242Z,80.01
2022-09-06T08:56:39.790Z,80.01
2022-09-06T08:59:12.759Z,80.05
2022-09-06T09:01:53.180Z,79.51
2022-09-06T09:04:25.483Z,78.86
2022-09-06T09:06:59.254Z,78.70
2022-09-06T09:09:31.224Z,78.85
2022-09-06T09:12:00.479Z,77.82
2022-09-06T09:14:30.989Z,78.22
2022-09-06T09:17:07.224Z,78.77
2022-09-06T09:19:37.675Z,78.20
2022-09-06T09:22:05.447Z,77.92
2022-09-06T09:24:36.412Z,76.07
2022-09-06T09:27:08.627Z,74.27
2022-09-06T09:32:47.536Z,76.04
2022-09-06T09:35:24.372Z,76.26
2022-09-06T09:38:08.064Z,75.33
2022-09-06T09:40:43.423Z,73.81
2022-09-06T09:43:18.906Z,74.62
2022-09-06T09:45:47.673Z,73.29
2022-09-06T09:48:22.397Z,72.48
2022-09-06T09:50:50.093Z,73.04
2022-09-06T09:53:22.256Z,73.46
2022-09-06T09:55:56.978Z,73.33
2022-09-06T09:58:34.257Z,72.37
2022-09-06T10:01:14.042Z,73.18
2022-09-06T10:09:21.942Z,72.10
2022-09-06T10:11:55.330Z,70.44
2022-09-06T10:14:31.767Z,71.08
2022-09-06T10:17:00.848Z,70.38
2022-09-06T10:19:40.848Z,69.74
2022-09-06T10:22:24.574Z,66.95
2022-09-06T10:25:10.035Z,67.25
2022-09-06T10:28:01.624Z,66.24
2022-09-06T10:30:40.573Z,66.57
2022-09-06T10:33:19.591Z,65.81
2022-09-06T10:35:47.177Z,65.71
2022-09-06T10:38:30.523Z,65.44
2022-09-06T10:41:07.214Z,65.69
2022-09-06T10:43:42.687Z,64.56
2022-09-06T10:46:16.021Z,64.96
2022-09-06T10:48:46.896Z,64.41
2022-09-06T10:51:22.988Z,63.37
2022-09-06T10:53:54.850Z,61.22
2022-09-06T10:56:26.601Z,61.62
2022-09-06T11:02:03.715Z,60.91
2022-09-06T11:07:30.036Z,60.52
2022-09-06T11:10:02.940Z,59.51
2022-09-06T11:12:38.492Z,58.20
2022-09-06T11:15:12.637Z,59.23
2022-09-06T11:17:47.053Z,59.40
2022-09-06T11:20:21.229Z,59.42
2022-09-06T11:23:12.359Z,59.03
2022-09-06T11:26:06.293Z,59.62
2022-09-06T11:28:40.234Z,58.47
2022-09-06T11:34:08.552Z,57.60
2022-09-06T11:36:38.582Z,58.04
2022-09-06T11:39:09.536Z,57.02
2022-09-06T11:41:40.718Z,58.08
2022-09-06T11:44:10.155Z,57.40
2022-09-06T11:47:02.054Z,58.60
2022-09-06T11:49:33.223Z,58.19
2022-09-06T11:52:01.357Z,57.35
2022-09-06T11:54:47.631Z,54.94
2022-09-06T11:57:21.752Z,54.44
2022-09-06T11:59:57.361Z,54.56
2022-09-06T12:02:35.209Z,54.84
2022-09-06T12:05:18.655Z,55.83
2022-09-06T12:08:23.846Z,57.49
2022-09-06T12:11:07.789Z,56.51
2022-09-06T12:13:48.861Z,57.06
2022-09-06T12:16:18.770Z,57.28
2022-09-06T12:19:01.419Z,55.78
2022-09-06T12:21:56.052Z,56.19
2022-09-06T12:24:53.222Z,56.08
2022-09-06T12:27:23.358Z,56.62
2022-09-06T12:29:58.468Z,56.48
2022-09-06T12:32:36.793Z,56.46
2022-09-06T12:37:58.753Z,55.60
2022-09-06T12:40:29.445Z,55.47
2022-09-06T12:42:59.258Z,55.53
2022-09-06T12:45:27.759Z,56.09
2022-09-06T12:48:08.576Z,56.08
2022-09-06T12:50:36.629Z,55.38
2022-09-06T12:53:19.491Z,56.05
2022-09-06T12:55:50.328Z,56.03
2022-09-06T12:58:29.686Z,56.46
2022-09-06T13:01:03.963Z,56.84
2022-09-06T13:03:41.126Z,54.29
2022-09-06T13:06:12.788Z,55.38
2022-09-06T13:08:45.516Z,56.26
2022-09-06T13:11:16.344Z,54.81
2022-09-06T13:13:49.798Z,54.50
2022-09-06T13:16:26.282Z,54.40
2022-09-06T13:18:54.735Z,55.15
2022-09-06T13:21:28.798Z,54.28
2022-09-06T13:23:59.024Z,54.33
2022-09-06T13:26:34.749Z,54.26
2022-09-06T13:29:23.222Z,53.78
2022-09-06T13:31:53.049Z,53.61
2022-09-06T13:34:25.071Z,52.93
2022-09-06T13:36:54.257Z,52.91
2022-09-06T13:39:33.576Z,53.28
2022-09-06T13:42:04.312Z,54.11
2022-09-06T13:44:34.673Z,52.33
2022-09-06T13:47:02.568Z,52.77
2022-09-06T13:49:30.977Z,52.54
2022-09-06T13:52:01.257Z,52.66
2022-09-06T13:54:29.644Z,53.20
2022-09-06T13:56:57.596Z,52.53
2022-09-06T13:59:26.144Z,52.22
2022-09-06T14:02:01.513Z,51.83
2022-09-06T14:04:29.775Z,52.99
2022-09-06T14:06:57.468Z,50.74
2022-09-06T14:09:25.250Z,50.86
2022-09-06T14:11:52.861Z,51.64
2022-09-06T14:14:21.632Z,52.37
2022-09-06T14:16:49.282Z,50.70
2022-09-06T14:19:18.534Z,51.64
2022-09-06T14:21:46.261Z,50.90
2022-09-06T14:24:13.902Z,51.39
2022-09-06T14:26:41.664Z,50.27
2022-09-06T14:29:09.319Z,52.06
2022-09-06T14:31:37.006Z,51.35
2022-09-06T14:34:04.968Z,51.23
2022-09-06T14:36:34.596Z,51.48
2022-09-06T14:39:03.009Z,49.92
2022-09-06T14:41:30.671Z,50.96
2022-09-06T14:43:59.264Z,51.12
2022-09-06T14:46:28.361Z,49.40
2022-09-06T14:49:01.140Z,49.79
2022-09-06T14:51:30.254Z,50.58
2022-09-06T14:54:02.470Z,50.77
2022-09-06T14:56:30.367Z,50.41
2022-09-06T14:58:59.855Z,49.99
2022-09-06T15:01:32.912Z,49.63
2022-09-06T15:04:05.586Z,49.14
2022-09-06T15:06:36.498Z,50.36
2022-09-06T15:09:06.557Z,49.63
2022-09-06T15:11:35.921Z,48.92
2022-09-06T15:14:04.963Z,49.35
2022-09-06T15:16:34.276Z,49.20
2022-09-06T15:19:02.794Z,47.25
2022-09-06T15:21:33.325Z,47.03
2022-09-06T15:24:02.033Z,46.12
2022-09-06T15:26:31.381Z,47.51
2022-09-06T15:28:59.040Z,48.66
2022-09-06T15:31:27.347Z,48.36
2022-09-06T15:33:55.538Z,48.20
2022-09-06T15:36:23.138Z,47.89
2022-09-06T15:38:53.846Z,47.57
2022-09-06T15:41:25.198Z,46.79
2022-09-06T15:43:56.783Z,47.45
2022-09-06T15:46:43.593Z,48.23
2022-09-06T15:49:13.736Z,47.68
2022-09-06T15:51:42.236Z,48.10
2022-09-06T15:54:11.987Z,48.68
2022-09-06T15:56:39.868Z,47.78
2022-09-06T15:59:09.246Z,46.90
2022-09-06T16:01:37.079Z,46.64
2022-09-06T16:04:06.690Z,47.69
2022-09-06T16:06:36.919Z,47.65
2022-09-06T16:09:06.745Z,47.68
2022-09-06T16:11:36.592Z,49.95
2022-09-06T16:14:05.657Z,50.10
2022-09-06T16:16:35.228Z,49.79
2022-09-06T16:19:03.315Z,50.04
2022-09-06T16:21:33.119Z,48.44
2022-09-06T16:24:02.793Z,48.09
2022-09-06T16:26:33.912Z,47.53
2022-09-06T16:29:02.469Z,47.08
2022-09-06T16:31:30.666Z,48.70
2022-09-06T16:33:59.621Z,47.89
2022-09-06T16:36:28.504Z,48.22
2022-09-06T16:38:57.673Z,48.09
2022-09-06T16:41:28.671Z,46.39
2022-09-06T16:43:56.581Z,47.61
2022-09-06T16:46:28.780Z,46.83
2022-09-06T16:48:57.927Z,47.92
2022-09-06T16:51:27.576Z,48.12
2022-09-06T16:53:55.885Z,49.62
2022-09-06T16:56:25.343Z,48.13
2022-09-06T16:58:55.086Z,47.91
2022-09-06T17:01:23.355Z,47.64
2022-09-06T17:03:51.845Z,50.68
2022-09-06T17:06:20.110Z,50.24
2022-09-06T17:08:49.128Z,52.16
2022-09-06T17:11:18.758Z,51.12
2022-09-06T17:13:49.328Z,51.65
2022-09-06T17:16:35.715Z,53.20
2022-09-06T17:19:03.454Z,55.14
2022-09-06T17:21:31.296Z,55.91
2022-09-06T17:24:05.110Z,57.27
2022-09-06T17:26:34.940Z,58.10
2022-09-06T17:29:02.746Z,58.92
2022-09-06T17:31:30.393Z,58.89
2022-09-06T17:33:59.655Z,59.74
2022-09-06T17:36:30.305Z,60.33
2022-09-06T17:39:03.240Z,60.77
2022-09-06T17:41:36.586Z,61.78
2022-09-06T17:44:05.627Z,61.86
2022-09-06T17:46:33.609Z,62.35
2022-09-06T17:49:01.371Z,62.56
2022-09-06T17:51:29.285Z,63.12
2022-09-06T17:53:56.960Z,63.42
2022-09-06T17:56:26.291Z,64.62
2022-09-06T17:58:55.312Z,64.82
2022-09-06T18:01:25.651Z,64.60
2022-09-06T18:03:54.257Z,64.86
2022-09-06T18:06:24.011Z,64.97
2022-09-06T18:08:53.936Z,64.62
2022-09-06T18:11:24.279Z,64.79
2022-09-06T18:13:58.450Z,64.87
2022-09-06T18:16:27.915Z,65.06
2022-09-06T18:18:57.194Z,65.19
2022-09-06T18:21:27.222Z,65.08
2022-09-06T18:23:55.595Z,65.56
2022-09-06T18:26:23.668Z,65.31
2022-09-06T18:28:52.931Z,65.37
2022-09-06T18:31:24.020Z,66.01
2022-09-06T18:33:51.990Z,66.19
2022-09-06T18:36:20.781Z,65.67
2022-09-06T18:38:48.553Z,66.42
2022-09-06T18:41:31.201Z,66.24
2022-09-06T18:44:00.449Z,66.59
2022-09-06T18:46:29.996Z,66.48
2022-09-06T18:48:57.668Z,66.38
2022-09-06T18:51:25.634Z,66.58
2022-09-06T18:53:53.741Z,66.52
2022-09-06T18:56:21.424Z,66.24
2022-09-06T18:58:49.420Z,66.27
2022-09-06T19:01:20.075Z,66.40
2022-09-06T19:03:49.139Z,66.85
2022-09-06T19:06:19.395Z,66.71
2022-09-06T19:08:47.988Z,66.18
2022-09-06T19:11:17.600Z,66.08
2022-09-06T19:13:47.148Z,66.25
2022-09-06T19:16:15.165Z,66.35
2022-09-06T19:18:43.141Z,66.10
2022-09-06T19:21:14.274Z,66.23
2022-09-06T19:23:44.829Z,66.29
2022-09-06T19:26:16.949Z,65.96
2022-09-06T19:28:50.177Z,66.47
2022-09-06T19:31:18.641Z,66.46
2022-09-06T19:33:48.306Z,66.33
2022-09-06T19:36:18.616Z,66.30
2022-09-06T19:39:03.086Z,66.26
2022-09-06T19:41:33.292Z,66.37
2022-09-06T19:44:01.686Z,65.78
2022-09-06T19:46:29.329Z,65.77
2022-09-06T19:48:57.264Z,65.62
2022-09-06T19:51:26.244Z,66.17
2022-09-06T19:53:57.312Z,65.83
2022-09-06T19:56:26.486Z,65.77
2022-09-06T19:58:55.644Z,65.89
2022-09-06T20:01:25.176Z,65.54
2022-09-06T20:03:53.508Z,66.01
2022-09-06T20:06:22.381Z,66.72
2022-09-06T20:08:52.977Z,66.75
2022-09-06T20:11:23.022Z,66.72
2022-09-06T20:13:50.654Z,65.83
2022-09-06T20:16:20.865Z,66.16
2022-09-06T20:18:48.962Z,66.57
2022-09-06T20:21:18.378Z,66.47
2022-09-06T20:23:51.428Z,66.38
2022-09-06T20:26:19.788Z,66.33
2022-09-06T20:28:48.839Z,65.70
2022-09-06T20:31:18.617Z,66.47
2022-09-06T20:33:49.685Z,67.06
2022-09-06T20:36:18.974Z,67.12
2022-09-06T20:38:48.342Z,67.19
2022-09-06T20:41:18.942Z,67.26
2022-09-06T20:43:51.331Z,67.24
2022-09-06T20:46:20.963Z,67.34
2022-09-06T20:48:48.881Z,67.75
2022-09-06T20:51:19.400Z,67.84
2022-09-06T20:53:49.032Z,67.85
2022-09-06T20:56:20.170Z,67.75
2022-09-06T20:58:52.099Z,66.81
2022-09-06T21:01:22.811Z,67.46
2022-09-06T21:03:52.349Z,67.38
2022-09-06T21:06:21.342Z,67.95
2022-09-06T21:08:50.345Z,68.04
2022-09-06T21:11:20.035Z,67.90
2022-09-06T21:13:49.969Z,68.01
2022-09-06T21:16:21.824Z,67.46
2022-09-06T21:18:52.467Z,67.97
2022-09-06T21:21:20.045Z,67.87
2022-09-06T21:23:47.610Z,67.93
2022-09-06T21:26:17.174Z,68.08
2022-09-06T21:28:47.603Z,67.79
2022-09-06T21:31:16.989Z,67.22
2022-09-06T21:33:46.215Z,68.05
2022-09-06T21:36:15.100Z,68.42
2022-09-06T21:38:45.305Z,68.47
2022-09-06T21:41:13.772Z,68.36
2022-09-06T21:43:41.794Z,67.67
2022-09-06T21:46:13.160Z,69.06
2022-09-06T21:48:42.519Z,67.96
2022-09-06T21:51:12.956Z,68.48
2022-09-06T21:53:41.223Z,69.04
2022-09-06T21:56:08.991Z,69.16
2022-09-06T21:58:36.827Z,69.02
2022-09-06T22:01:05.069Z,68.80
2022-09-06T22:03:36.282Z,67.57
2022-09-06T22:06:09.601Z,68.15
2022-09-06T22:08:37.249Z,68.49
2022-09-06T22:11:09.896Z,69.21
2022-09-06T22:13:37.497Z,69.48
2022-09-06T22:16:08.062Z,68.87
2022-09-06T22:18:37.771Z,69.46
2022-09-06T22:21:08.486Z,69.24
2022-09-06T22:23:36.553Z,69.18
2022-09-06T22:26:06.073Z,69.28
2022-09-06T22:28:34.509Z,68.24
2022-09-06T22:31:02.455Z,69.27
2022-09-06T22:33:30.308Z,69.59
2022-09-06T22:36:00.492Z,68.93
2022-09-06T22:38:28.667Z,69.55
2022-09-06T22:40:57.145Z,68.42
2022-09-06T22:43:25.392Z,68.58
2022-09-06T22:45:53.279Z,68.06
2022-09-06T22:48:21.007Z,69.36
2022-09-06T22:50:48.658Z,68.86
2022-09-06T22:53:17.765Z,68.87
2022-09-06T22:55:48.182Z,69.21
2022-09-06T22:58:15.770Z,68.42
2022-09-06T23:00:43.430Z,69.13
2022-09-06T23:03:11.258Z,69.20
2022-09-06T23:05:38.842Z,68.30
2022-09-06T23:08:06.486Z,68.14
2022-09-06T23:10:40.606Z,68.05
2022-09-06T23:15:40.816Z,68.34
2022-09-06T23:18:08.831Z,68.77
2022-09-06T23:20:37.140Z,68.84
2022-09-06T23:23:04.867Z,68.71
2022-09-06T23:25:32.783Z,68.19
2022-09-06T23:28:01.778Z,68.69
2022-09-06T23:30:29.440Z,68.48
2022-09-06T23:32:56.998Z,68.68
2022-09-06T23:35:24.900Z,68.33
2022-09-06T23:37:53.421Z,68.53
2022-09-06T23:40:21.162Z,67.95
2022-09-06T23:42:48.816Z,69.30
2022-09-06T23:45:17.745Z,68.56
2022-09-06T23:47:45.310Z,69.19
2022-09-06T23:50:12.930Z,68.75
2022-09-06T23:52:40.502Z,68.48
2022-09-06T23:55:09.327Z,68.58
2022-09-06T23:57:36.944Z,68.56
